sensor_id;sensor_type;location;lat;lon;timestamp;temperature;humidity
21918;DHT22;11123;49.882;8.662;2022-12-13T16:42:57;-4.80;99.90
21918;DHT22;11123;49.882;8.662;2022-12-13T16:45:37;-4.90;99.90
21918;DHT22;11123;49.882;8.662;2022-12-13T16:49:09;-4.90;99.90
21918;DHT22;11123;49.882;8.662;2022-12-13T16:52:18;-5.00;99.90
21918;DHT22;11123;49.882;8.662;2022-12-13T16:55:03;-5.00;99.90
21918;DHT22;11123;49.882;8.662;2022-12-13T17:24:42;-5.10;99.90
21918;DHT22;11123;49.882;8.662;2022-12-13T17:27:12;-5.20;99.90
21918;DHT22;11123;49.882;8.662;2022-12-13T17:33:54;-5.20;99.90
21918;DHT22;11123;49.882;8.662;2022-12-13T17:36:56;-5.30;99.90
21918;DHT22;11123;49.882;8.662;2022-12-13T17:40:06;-5.30;99.90
21918;DHT22;11123;49.882;8.662;2022-12-13T17:42:50;-5.20;99.90
21918;DHT22;11123;49.882;8.662;2022-12-13T17:45:34;-5.20;99.90
21918;DHT22;11123;49.882;8.662;2022-12-13T17:48:06;-5.20;99.90
21918;DHT22;11123;49.882;8.662;2022-12-13T17:51:34;-5.20;99.90
21918;DHT22;11123;49.882;8.662;2022-12-13T17:54:08;-5.10;99.90
21918;DHT22;11123;49.882;8.662;2022-12-13T17:56:54;-5.10;99.90
21918;DHT22;11123;49.882;8.662;2022-12-13T17:59:53;-5.00;99.90
21918;DHT22;11123;49.882;8.662;2022-12-13T18:02:39;-5.00;99.90
21918;DHT22;11123;49.882;8.662;2022-12-13T18:05:23;-5.00;99.90
21918;DHT22;11123;49.882;8.662;2022-12-13T18:08:14;-5.00;99.90
21918;DHT22;11123;49.882;8.662;2022-12-13T18:11:00;-5.00;99.90
21918;DHT22;11123;49.882;8.662;2022-12-13T18:14:38;-5.00;99.90
21918;DHT22;11123;49.882;8.662;2022-12-13T18:17:30;-5.00;99.90
21918;DHT22;11123;49.882;8.662;2022-12-13T18:20:48;-5.10;99.90
21918;DHT22;11123;49.882;8.662;2022-12-13T18:23:34;-5.10;99.90
21918;DHT22;11123;49.882;8.662;2022-12-13T18:27:17;-5.10;99.90
21918;DHT22;11123;49.882;8.662;2022-12-13T18:30:39;-5.10;99.90
21918;DHT22;11123;49.882;8.662;2022-12-13T18:33:24;-5.10;99.90
21918;DHT22;11123;49.882;8.662;2022-12-13T18:36:37;-5.10;99.90
21918;DHT22;11123;49.882;8.662;2022-12-13T18:39:14;-5.10;99.90
21918;DHT22;11123;49.882;8.662;2022-12-13T18:41:52;-5.10;99.90
21918;DHT22;11123;49.882;8.662;2022-12-13T18:44:36;-5.10;99.90
21918;DHT22;11123;49.882;8.662;2022-12-13T18:47:26;-5.00;99.90
21918;DHT22;11123;49.882;8.662;2022-12-13T18:51:01;-5.10;99.90
21918;DHT22;11123;49.882;8.662;2022-12-13T18:53:55;-5.10;99.90
21918;DHT22;11123;49.882;8.662;2022-12-13T18:56:27;-5.00;99.90
21918;DHT22;11123;49.882;8.662;2022-12-13T18:59:00;-5.10;99.90
21918;DHT22;11123;49.882;8.662;2022-12-13T19:02:36;-5.10;99.90
21918;DHT22;11123;49.882;8.662;2022-12-13T19:05:25;-5.20;99.90
21918;DHT22;11123;49.882;8.662;2022-12-13T19:08:38;-5.20;99.90
21918;DHT22;11123;49.882;8.662;2022-12-13T19:12:29;-5.20;99.90
21918;DHT22;11123;49.882;8.662;2022-12-13T19:14:44;-5.10;99.90
21918;DHT22;11123;49.882;8.662;2022-12-13T19:17:23;-5.20;99.90
21918;DHT22;11123;49.882;8.662;2022-12-13T19:20:05;-5.20;99.90
21918;DHT22;11123;49.882;8.662;2022-12-13T19:22:57;-5.20;99.90
21918;DHT22;11123;49.882;8.662;2022-12-13T19:25:49;-5.20;99.90
21918;DHT22;11123;49.882;8.662;2022-12-13T19:29:17;-5.20;99.90
21918;DHT22;11123;49.882;8.662;2022-12-13T19:31:57;-5.20;99.90
21918;DHT22;11123;49.882;8.662;2022-12-13T19:39:11;-5.20;99.90
21918;DHT22;11123;49.882;8.662;2022-12-13T19:42:00;-5.20;99.90
21918;DHT22;11123;49.882;8.662;2022-12-13T19:44:36;-5.20;99.90
21918;DHT22;11123;49.882;8.662;2022-12-13T19:47:06;-5.20;99.90
21918;DHT22;11123;49.882;8.662;2022-12-13T19:49:42;-5.20;99.90
21918;DHT22;11123;49.882;8.662;2022-12-13T19:52:22;-5.20;99.90
21918;DHT22;11123;49.882;8.662;2022-12-13T19:58:35;-5.20;99.90
21918;DHT22;11123;49.882;8.662;2022-12-13T20:02:16;-5.10;99.90
21918;DHT22;11123;49.882;8.662;2022-12-13T20:08:07;-5.20;99.90
21918;DHT22;11123;49.882;8.662;2022-12-13T20:10:27;-5.10;99.90
21918;DHT22;11123;49.882;8.662;2022-12-13T20:13:39;-5.10;99.90
21918;DHT22;11123;49.882;8.662;2022-12-13T20:16:34;-5.10;99.90
21918;DHT22;11123;49.882;8.662;2022-12-13T20:19:16;-5.10;99.90
21918;DHT22;11123;49.882;8.662;2022-12-13T20:21:50;-5.10;99.90
21918;DHT22;11123;49.882;8.662;2022-12-13T20:24:52;-5.10;99.90
21918;DHT22;11123;49.882;8.662;2022-12-13T20:27:34;-5.10;99.90
21918;DHT22;11123;49.882;8.662;2022-12-13T20:30:22;-5.10;99.90
21918;DHT22;11123;49.882;8.662;2022-12-13T20:33:57;-5.10;99.90
21918;DHT22;11123;49.882;8.662;2022-12-13T20:36:33;-5.10;99.90
21918;DHT22;11123;49.882;8.662;2022-12-13T20:39:54;-5.10;99.90
21918;DHT22;11123;49.882;8.662;2022-12-13T20:43:22;-5.10;99.90
21918;DHT22;11123;49.882;8.662;2022-12-13T20:46:45;-5.00;99.90
21918;DHT22;11123;49.882;8.662;2022-12-13T20:49:31;-5.00;99.90
21918;DHT22;11123;49.882;8.662;2022-12-13T20:52:31;-5.00;99.90
21918;DHT22;11123;49.882;8.662;2022-12-13T20:55:43;-5.00;99.90
21918;DHT22;11123;49.882;8.662;2022-12-13T20:58:31;-5.00;99.90
21918;DHT22;11123;49.882;8.662;2022-12-13T21:01:18;-4.90;99.90
21918;DHT22;11123;49.882;8.662;2022-12-13T21:04:16;-4.90;99.90
21918;DHT22;11123;49.882;8.662;2022-12-13T21:08:01;-5.00;99.90
21918;DHT22;11123;49.882;8.662;2022-12-13T21:10:46;-4.90;99.90
21918;DHT22;11123;49.882;8.662;2022-12-13T21:14:04;-4.80;99.90
21918;DHT22;11123;49.882;8.662;2022-12-13T21:17:01;-4.80;99.90
21918;DHT22;11123;49.882;8.662;2022-12-13T21:19:48;-4.80;99.90
21918;DHT22;11123;49.882;8.662;2022-12-13T21:22:49;-4.70;99.90
21918;DHT22;11123;49.882;8.662;2022-12-13T21:25:24;-4.60;99.90
21918;DHT22;11123;49.882;8.662;2022-12-13T21:28:05;-4.60;99.90
21918;DHT22;11123;49.882;8.662;2022-12-13T21:35:16;-4.60;99.90
21918;DHT22;11123;49.882;8.662;2022-12-13T21:37:51;-4.50;99.90
21918;DHT22;11123;49.882;8.662;2022-12-13T21:40:23;-4.50;99.90
21918;DHT22;11123;49.882;8.662;2022-12-13T21:43:07;-4.50;99.90
21918;DHT22;11123;49.882;8.662;2022-12-13T21:45:38;-4.50;99.90
21918;DHT22;11123;49.882;8.662;2022-12-13T21:48:15;-4.50;99.90
21918;DHT22;11123;49.882;8.662;2022-12-13T21:50:54;-4.50;99.90
21918;DHT22;11123;49.882;8.662;2022-12-13T21:53:44;-4.50;99.90
21918;DHT22;11123;49.882;8.662;2022-12-13T21:56:28;-4.50;99.90
21918;DHT22;11123;49.882;8.662;2022-12-13T21:59:24;-4.60;99.90
21918;DHT22;11123;49.882;8.662;2022-12-13T22:01:59;-4.50;99.90
21918;DHT22;11123;49.882;8.662;2022-12-13T22:04:49;-4.50;99.90
21918;DHT22;11123;49.882;8.662;2022-12-13T22:07:29;-4.50;99.90
21918;DHT22;11123;49.882;8.662;2022-12-13T22:10:04;-4.50;99.90
21918;DHT22;11123;49.882;8.662;2022-12-13T22:12:44;-4.50;99.90
21918;DHT22;11123;49.882;8.662;2022-12-13T22:15:27;-4.50;99.90
21918;DHT22;11123;49.882;8.662;2022-12-13T22:18:03;-4.50;99.90
21918;DHT22;11123;49.882;8.662;2022-12-13T22:21:04;-4.50;99.90
21918;DHT22;11123;49.882;8.662;2022-12-13T22:23:53;-4.50;99.90
21918;DHT22;11123;49.882;8.662;2022-12-13T22:26:40;-4.50;99.90
21918;DHT22;11123;49.882;8.662;2022-12-13T22:29:22;-4.50;99.90
21918;DHT22;11123;49.882;8.662;2022-12-13T22:32:21;-4.50;99.90
21918;DHT22;11123;49.882;8.662;2022-12-13T22:35:08;-4.40;99.90
21918;DHT22;11123;49.882;8.662;2022-12-13T22:37:55;-4.40;99.90
21918;DHT22;11123;49.882;8.662;2022-12-13T22:40:42;-4.40;99.90
21918;DHT22;11123;49.882;8.662;2022-12-13T22:43:15;-4.50;99.90
21918;DHT22;11123;49.882;8.662;2022-12-13T22:46:00;-4.50;99.90
21918;DHT22;11123;49.882;8.662;2022-12-13T22:48:47;-4.40;99.90
21918;DHT22;11123;49.882;8.662;2022-12-13T22:51:31;-4.40;99.90
21918;DHT22;11123;49.882;8.662;2022-12-13T22:54:15;-4.40;99.90
21918;DHT22;11123;49.882;8.662;2022-12-13T22:56:57;-4.40;99.90
21918;DHT22;11123;49.882;8.662;2022-12-13T22:59:44;-4.40;99.90
21918;DHT22;11123;49.882;8.662;2022-12-13T23:02:32;-4.40;99.90
21918;DHT22;11123;49.882;8.662;2022-12-13T23:05:09;-4.40;99.90
21918;DHT22;11123;49.882;8.662;2022-12-13T23:07:52;-4.40;99.90
21918;DHT22;11123;49.882;8.662;2022-12-13T23:11:05;-4.40;99.90
21918;DHT22;11123;49.882;8.662;2022-12-13T23:14:06;-4.40;99.90
21918;DHT22;11123;49.882;8.662;2022-12-13T23:16:51;-4.40;99.90
21918;DHT22;11123;49.882;8.662;2022-12-13T23:19:33;-4.50;99.90
21918;DHT22;11123;49.882;8.662;2022-12-13T23:22:23;-4.50;99.90
21918;DHT22;11123;49.882;8.662;2022-12-13T23:25:00;-4.50;99.90
21918;DHT22;11123;49.882;8.662;2022-12-13T23:27:42;-4.50;99.90
21918;DHT22;11123;49.882;8.662;2022-12-13T23:30:16;-4.50;99.90
21918;DHT22;11123;49.882;8.662;2022-12-13T23:32:57;-4.50;99.90
21918;DHT22;11123;49.882;8.662;2022-12-13T23:35:27;-4.50;99.90
21918;DHT22;11123;49.882;8.662;2022-12-13T23:37:57;-4.50;99.90
21918;DHT22;11123;49.882;8.662;2022-12-13T23:40:29;-4.50;99.90
21918;DHT22;11123;49.882;8.662;2022-12-13T23:43:13;-4.50;99.90
21918;DHT22;11123;49.882;8.662;2022-12-13T23:45:47;-4.60;99.90
21918;DHT22;11123;49.882;8.662;2022-12-13T23:48:30;-4.60;99.90
21918;DHT22;11123;49.882;8.662;2022-12-13T23:51:16;-4.60;99.90
21918;DHT22;11123;49.882;8.662;2022-12-13T23:54:04;-4.60;99.90
21918;DHT22;11123;49.882;8.662;2022-12-13T23:56:49;-4.70;99.90
21918;DHT22;11123;49.882;8.662;2022-12-13T23:59:32;-4.70;99.90
